createdAt,value
2019-05-07T00:04:17.700Z,4.40
2019-05-07T00:09:23.435Z,3.83
2019-05-07T00:14:28.823Z,4.40
2019-05-07T00:19:33.912Z,5.60
2019-05-07T00:24:38.914Z,5.33
2019-05-07T00:29:44.055Z,6.03
2019-05-07T00:34:54.254Z,5.27
2019-05-07T00:40:05.169Z,4.23
2019-05-07T00:45:17.875Z,3.97
2019-05-07T00:50:22.496Z,3.93
2019-05-07T00:55:27.256Z,4.03
2019-05-07T01:00:33.364Z,4.30
2019-05-07T01:05:38.534Z,3.03
2019-05-07T01:10:43.614Z,3.10
2019-05-07T01:15:48.671Z,4.73
2019-05-07T01:20:54.602Z,5.40
2019-05-07T01:25:59.699Z,4.90
2019-05-07T01:31:04.761Z,4.90
2019-05-07T01:36:17.047Z,5.83
2019-05-07T01:41:23.093Z,5.97
2019-05-07T01:46:28.307Z,4.23
2019-05-07T01:51:33.343Z,5.53
2019-05-07T01:56:38.287Z,5.23
2019-05-07T02:01:43.699Z,4.30
2019-05-07T02:07:06.380Z,3.47
2019-05-07T02:12:15.986Z,4.33
2019-05-07T02:17:22.788Z,3.57
2019-05-07T02:22:27.747Z,3.80
2019-05-07T02:27:33.010Z,4.50
2019-05-07T02:32:38.139Z,3.80
2019-05-07T02:37:52.555Z,4.27
2019-05-07T02:42:54.379Z,5.27
2019-05-07T02:47:59.404Z,4.50
2019-05-07T02:53:18.024Z,3.60
2019-05-07T02:58:24.036Z,4.77
2019-05-07T03:03:28.719Z,4.70
2019-05-07T03:08:33.835Z,3.67
2019-05-07T03:13:38.899Z,4.40
2019-05-07T03:18:44.231Z,3.43
2019-05-07T03:23:56.891Z,4.47
2019-05-07T03:29:03.989Z,5.20
2019-05-07T03:34:26.078Z,5.00
2019-05-07T03:39:33.859Z,4.80
2019-05-07T03:44:39.500Z,4.73
2019-05-07T03:49:44.440Z,5.67
2019-05-07T03:54:49.509Z,3.73
2019-05-07T03:59:54.464Z,5.10
2019-05-07T04:04:59.513Z,3.63
2019-05-07T04:10:10.020Z,3.77
2019-05-07T04:15:14.560Z,5.73
2019-05-07T04:20:20.256Z,11.73
2019-05-07T04:25:29.924Z,5.37
2019-05-07T04:30:36.292Z,5.50
2019-05-07T04:35:43.618Z,3.23
2019-05-07T04:40:48.828Z,3.77
2019-05-07T04:45:53.975Z,4.63
2019-05-07T04:51:03.385Z,3.73
2019-05-07T04:56:07.232Z,2.77
2019-05-07T05:01:14.073Z,4.90
2019-05-07T05:06:20.230Z,6.20
2019-05-07T05:11:38.525Z,3.27
2019-05-07T05:16:43.624Z,3.73
2019-05-07T05:21:50.204Z,4.60
2019-05-07T05:26:55.135Z,3.30
2019-05-07T05:32:02.221Z,4.93
2019-05-07T05:37:06.791Z,2.80
2019-05-07T05:42:13.498Z,1.83
2019-05-07T05:47:18.528Z,3.70
2019-05-07T05:52:25.191Z,4.60
2019-05-07T05:57:32.367Z,4.10
2019-05-07T06:02:44.064Z,2.07
2019-05-07T06:07:59.610Z,2.27
2019-05-07T06:13:09.496Z,3.63
2019-05-07T06:18:21.383Z,2.90
2019-05-07T06:23:29.938Z,3.67
2019-05-07T06:28:34.972Z,2.63
2019-05-07T06:33:39.944Z,2.93
2019-05-07T06:38:48.983Z,3.43
2019-05-07T06:43:58.314Z,5.83
2019-05-07T06:49:03.355Z,2.43
2019-05-07T06:54:09.656Z,3.13
2019-05-07T06:59:19.099Z,2.87
2019-05-07T07:04:25.857Z,2.60
2019-05-07T07:09:32.975Z,1.37
2019-05-07T07:14:38.043Z,1.83
2019-05-07T07:19:43.186Z,1.30
2019-05-07T07:24:48.188Z,1.23
2019-05-07T07:30:06.587Z,2.20
2019-05-07T07:35:13.402Z,2.07
2019-05-07T07:40:36.699Z,2.13
2019-05-07T07:45:42.127Z,1.83
2019-05-07T07:50:47.050Z,2.37
2019-05-07T07:56:12.068Z,1.90
2019-05-07T08:01:18.307Z,2.83
2019-05-07T08:06:23.412Z,3.13
2019-05-07T08:11:28.600Z,1.83
2019-05-07T08:16:33.987Z,2.07
2019-05-07T08:21:39.096Z,2.87
2019-05-07T08:26:44.183Z,2.47
2019-05-07T08:31:51.729Z,1.87
2019-05-07T08:36:56.875Z,1.73
2019-05-07T08:42:02.142Z,2.03
2019-05-07T08:47:12.644Z,2.33
2019-05-07T08:52:17.623Z,1.97
2019-05-07T08:57:22.961Z,1.87
2019-05-07T09:02:27.940Z,1.83
2019-05-07T09:07:32.954Z,1.97
2019-05-07T09:12:37.923Z,2.40
2019-05-07T09:17:43.113Z,2.23
2019-05-07T09:22:49.220Z,3.20
2019-05-07T09:27:55.163Z,2.40
2019-05-07T09:33:02.910Z,2.20
2019-05-07T09:38:07.964Z,2.17
2019-05-07T09:43:12.911Z,1.37
2019-05-07T09:48:19.107Z,1.57
2019-05-07T09:53:24.260Z,1.30
2019-05-07T09:58:36.757Z,1.57
2019-05-07T10:03:36.072Z,1.67
2019-05-07T10:08:41.970Z,1.60
2019-05-07T10:13:48.723Z,0.70
2019-05-07T10:18:53.881Z,1.70
2019-05-07T10:23:59.031Z,2.83
2019-05-07T10:29:04.148Z,1.80
2019-05-07T10:34:09.259Z,1.20
2019-05-07T10:39:14.598Z,0.93
2019-05-07T10:44:22.890Z,1.20
2019-05-07T10:49:31.669Z,1.37
2019-05-07T10:54:36.225Z,1.00
2019-05-07T10:59:42.237Z,1.33
2019-05-07T11:04:47.387Z,1.10
2019-05-07T11:09:52.611Z,1.10
2019-05-07T11:14:57.659Z,1.00
2019-05-07T11:20:03.249Z,0.63
2019-05-07T11:25:08.769Z,1.43
2019-05-07T11:30:14.414Z,1.10
2019-05-07T11:35:19.596Z,1.07
2019-05-07T11:40:25.071Z,1.40
2019-05-07T11:45:32.133Z,1.03
2019-05-07T11:50:42.293Z,0.90
2019-05-07T11:55:47.391Z,0.77
2019-05-07T12:00:57.045Z,1.10
2019-05-07T12:06:02.272Z,0.70
2019-05-07T12:11:08.419Z,0.80
2019-05-07T12:16:14.188Z,0.60
2019-05-07T12:21:21.924Z,1.40
2019-05-07T12:26:26.423Z,1.03
2019-05-07T12:31:35.971Z,1.00
2019-05-07T12:36:41.086Z,0.90
2019-05-07T12:41:46.168Z,1.00
2019-05-07T12:46:52.441Z,0.97
2019-05-07T12:52:02.410Z,1.00
2019-05-07T12:57:07.496Z,0.60
2019-05-07T13:02:26.805Z,0.70
2019-05-07T13:07:22.633Z,0.80
2019-05-07T13:12:27.860Z,0.70
2019-05-07T13:17:33.721Z,0.60
2019-05-07T13:22:38.863Z,0.90
2019-05-07T13:27:43.899Z,0.90
2019-05-07T13:32:49.079Z,0.60
2019-05-07T13:37:55.949Z,0.90
2019-05-07T13:43:08.927Z,1.40
2019-05-07T13:48:22.585Z,0.77
2019-05-07T13:53:27.903Z,1.80
2019-05-07T13:58:33.075Z,1.00
2019-05-07T14:03:38.153Z,1.70
2019-05-07T14:08:45.024Z,0.80
2019-05-07T14:13:52.216Z,0.40
2019-05-07T14:18:56.791Z,0.87
2019-05-07T14:24:01.906Z,0.87
2019-05-07T14:29:07.064Z,0.90
2019-05-07T14:34:13.855Z,2.43
2019-05-07T14:39:18.831Z,1.00
2019-05-07T14:44:25.579Z,1.27
2019-05-07T14:49:31.745Z,1.27
2019-05-07T14:54:36.896Z,0.83
2019-05-07T14:59:42.781Z,1.13
2019-05-07T15:04:47.918Z,0.83
2019-05-07T15:09:53.123Z,0.70
2019-05-07T15:14:58.131Z,0.83
2019-05-07T15:20:03.487Z,0.63
2019-05-07T15:25:11.951Z,1.00
2019-05-07T15:30:16.945Z,1.63
2019-05-07T15:35:22.168Z,0.93
2019-05-07T15:40:27.179Z,1.80
2019-05-07T15:45:33.627Z,1.37
2019-05-07T15:50:38.746Z,5.10
2019-05-07T15:55:43.775Z,2.23
2019-05-07T16:00:48.893Z,10.97
2019-05-07T16:05:54.092Z,2.20
2019-05-07T16:10:59.111Z,9.87
2019-05-07T16:16:04.295Z,1.07
2019-05-07T16:21:11.917Z,1.20
2019-05-07T16:26:16.146Z,1.40
2019-05-07T16:31:21.957Z,1.40
2019-05-07T16:36:27.760Z,1.73
2019-05-07T16:41:32.864Z,1.10
2019-05-07T16:46:37.905Z,1.47
2019-05-07T16:51:44.736Z,0.87
2019-05-07T16:57:07.766Z,1.53
2019-05-07T17:02:14.454Z,1.53
2019-05-07T17:07:22.403Z,2.97
2019-05-07T17:12:26.880Z,5.77
2019-05-07T17:17:32.181Z,4.50
2019-05-07T17:22:37.423Z,2.30
2019-05-07T17:27:42.741Z,5.63
2019-05-07T17:32:47.926Z,4.37
2019-05-07T17:38:05.379Z,3.80
2019-05-07T17:42:59.547Z,5.00
2019-05-07T17:48:05.212Z,8.27
2019-05-07T17:53:11.996Z,7.50
2019-05-07T17:58:17.015Z,6.13
2019-05-07T18:03:37.970Z,5.60
2019-05-07T18:08:43.084Z,4.63
2019-05-07T18:13:48.264Z,5.20
2019-05-07T18:18:53.290Z,4.93
2019-05-07T18:24:12.671Z,3.27
2019-05-07T18:29:05.091Z,4.90
2019-05-07T18:34:12.637Z,6.73
2019-05-07T18:39:16.855Z,11.57
2019-05-07T18:44:22.464Z,16.30
2019-05-07T18:49:27.543Z,20.13
2019-05-07T18:54:32.561Z,7.30
2019-05-07T18:59:37.576Z,7.57
2019-05-07T19:04:42.776Z,7.87
2019-05-07T19:09:47.948Z,7.83
2019-05-07T19:14:52.906Z,8.03
2019-05-07T19:19:57.995Z,7.17
2019-05-07T19:25:03.184Z,7.57
2019-05-07T19:30:12.579Z,7.77
2019-05-07T19:35:17.507Z,8.67
2019-05-07T19:40:22.667Z,7.80
2019-05-07T19:45:27.784Z,8.17
2019-05-07T19:50:32.898Z,8.73
2019-05-07T19:55:55.711Z,8.63
2019-05-07T20:01:01.797Z,9.57
2019-05-07T20:06:07.024Z,9.63
2019-05-07T20:11:13.803Z,14.70
2019-05-07T20:16:19.789Z,17.53
2019-05-07T20:21:24.946Z,14.07
2019-05-07T20:26:32.274Z,10.63
2019-05-07T20:31:42.269Z,9.20
2019-05-07T20:36:46.964Z,11.67
2019-05-07T20:41:52.752Z,9.73
2019-05-07T20:46:58.924Z,10.37
2019-05-07T20:52:04.010Z,11.10
2019-05-07T20:57:16.927Z,8.53
2019-05-07T21:02:22.693Z,10.20
2019-05-07T21:07:28.067Z,10.83
2019-05-07T21:12:33.340Z,11.93
2019-05-07T21:17:38.295Z,12.37
2019-05-07T21:22:43.270Z,11.33
2019-05-07T21:27:48.323Z,11.63
2019-05-07T21:32:53.411Z,13.07
2019-05-07T21:37:58.364Z,12.10
2019-05-07T21:43:03.542Z,13.43
2019-05-07T21:48:09.599Z,12.87
2019-05-07T21:53:16.287Z,13.10
2019-05-07T21:58:25.575Z,10.90
2019-05-07T22:03:34.739Z,11.40
2019-05-07T22:08:37.558Z,11.27
2019-05-07T22:13:43.524Z,10.67
2019-05-07T22:18:48.804Z,11.27
2019-05-07T22:23:53.826Z,11.67
2019-05-07T22:28:58.985Z,11.20
2019-05-07T22:34:05.806Z,12.07
2019-05-07T22:39:12.611Z,11.00
2019-05-07T22:44:19.306Z,11.50
2019-05-07T22:49:24.338Z,12.43
2019-05-07T22:54:29.356Z,12.37
2019-05-07T22:59:37.519Z,13.17
2019-05-07T23:04:43.165Z,12.10
2019-05-07T23:09:48.431Z,12.40
2019-05-07T23:14:53.741Z,10.50
2019-05-07T23:19:59.019Z,10.43
2019-05-07T23:25:06.877Z,11.07
2019-05-07T23:30:13.116Z,10.50
2019-05-07T23:35:18.350Z,10.63
2019-05-07T23:40:27.617Z,10.80
2019-05-07T23:45:32.656Z,10.93
2019-05-07T23:50:37.765Z,11.50
2019-05-07T23:55:42.851Z,9.83
